Time;durP1;ratioP1;P1;durP2;ratioP2;P2;SDS_P1;SDS_P2;PMS_P1;PMS_P2;Temp;Humidity;BMP_temperature;BMP_pressure;BME280_temperature;BME280_humidity;BME280_pressure;Samples;Min_cycle;Max_cycle;Signal;HPM_P1;HPM_P2
2023/07/15 00:01:43;;;;;;;4.97;2.70;;;19.40;99.90;;;;;;5033316;28;20120;-89
2023/07/15 00:04:13;;;;;;;4.63;2.45;;;19.50;99.90;;;;;;5029005;28;20435;-89
2023/07/15 00:06:39;;;;;;;4.78;2.33;;;19.40;99.90;;;;;;5031848;28;20052;-90
2023/07/15 00:09:04;;;;;;;7.47;2.60;;;19.50;99.90;;;;;;5048469;28;20040;-89
2023/07/15 00:11:33;;;;;;;3.58;2.08;;;19.50;99.90;;;;;;5031259;28;20075;-90
2023/07/15 00:14:01;;;;;;;6.32;2.35;;;19.50;99.90;;;;;;5048355;28;20135;-89
2023/07/15 00:16:30;;;;;;;7.00;3.13;;;19.50;99.90;;;;;;5047044;28;20102;-89
2023/07/15 00:18:56;;;;;;;7.05;2.65;;;19.50;99.90;;;;;;5047558;28;20080;-90
2023/07/15 00:21:30;;;;;;;3.00;1.95;;;19.50;99.90;;;;;;4997788;28;20394;-89
2023/07/15 00:23:57;;;;;;;3.22;2.17;;;19.50;99.90;;;;;;5047125;28;20135;-90
2023/07/15 00:26:24;;;;;;;4.45;2.65;;;19.50;99.90;;;;;;5031759;28;20045;-90
2023/07/15 00:28:50;;;;;;;5.07;2.60;;;19.60;99.90;;;;;;5046869;28;20059;-90
2023/07/15 00:31:20;;;;;;;6.57;2.10;;;19.50;99.90;;;;;;5030657;28;20504;-90
2023/07/15 00:33:46;;;;;;;3.35;2.35;;;19.60;99.90;;;;;;5029946;28;20058;-90
2023/07/15 00:36:14;;;;;;;7.15;2.58;;;19.60;99.90;;;;;;5046189;28;20102;-90
2023/07/15 00:38:41;;;;;;;4.25;2.78;;;19.20;99.90;;;;;;5029763;28;20084;-90
2023/07/15 00:41:18;;;;;;;4.35;2.58;;;19.60;99.90;;;;;;5047075;28;20420;-90
2023/07/15 00:44:14;;;;;;;7.13;2.40;;;19.50;99.90;;;;;;5047958;28;20440;-89
2023/07/15 00:47:21;;;;;;;5.20;2.60;;;19.50;99.90;;;;;;5030276;28;20044;-89
2023/07/15 00:49:48;;;;;;;6.05;2.03;;;19.50;99.90;;;;;;5046884;28;20110;-90
2023/07/15 00:52:16;;;;;;;5.32;2.67;;;19.50;99.90;;;;;;5047714;28;20052;-90
2023/07/15 00:54:45;;;;;;;6.22;2.33;;;19.50;99.90;;;;;;5030030;28;20443;-90
2023/07/15 00:57:14;;;;;;;4.00;1.92;;;19.50;99.90;;;;;;5046926;28;20049;-90
2023/07/15 00:59:42;;;;;;;4.13;2.17;;;19.60;99.90;;;;;;5030059;28;20109;-90
2023/07/15 01:02:11;;;;;;;3.92;2.38;;;19.50;99.90;;;;;;5046801;28;20059;-90
2023/07/15 01:04:37;;;;;;;4.28;1.92;;;19.60;99.90;;;;;;5046779;28;20495;-90
2023/07/15 01:07:06;;;;;;;5.88;2.42;;;19.60;99.90;;;;;;5045762;28;20045;-90
2023/07/15 01:09:34;;;;;;;5.47;2.13;;;19.60;99.90;;;;;;5014689;28;20040;-90
2023/07/15 01:12:00;;;;;;;6.07;2.63;;;19.60;99.90;;;;;;5029223;28;20044;-90
2023/07/15 01:14:28;;;;;;;2.58;1.83;;;19.60;99.90;;;;;;5030485;28;20051;-89
2023/07/15 01:16:54;;;;;;;5.55;2.17;;;19.60;99.90;;;;;;5046294;28;20123;-91
2023/07/15 01:19:21;;;;;;;5.25;2.30;;;19.60;99.90;;;;;;5047088;28;20055;-90
2023/07/15 01:21:50;;;;;;;9.40;4.13;;;19.60;99.90;;;;;;5030394;28;20060;-91
2023/07/15 01:24:21;;;;;;;5.03;2.22;;;19.60;99.90;;;;;;5045949;28;20045;-90
2023/07/15 01:26:53;;;;;;;3.83;1.95;;;19.70;99.90;;;;;;5031289;28;20404;-90
2023/07/15 01:29:20;;;;;;;3.47;1.80;;;19.70;99.90;;;;;;5013891;28;20045;-90
2023/07/15 01:31:46;;;;;;;5.75;2.05;;;19.80;99.90;;;;;;5000125;28;20078;-90
2023/07/15 01:34:19;;;;;;;3.25;1.92;;;19.80;99.90;;;;;;5031908;28;20048;-90
2023/07/15 01:36:48;;;;;;;5.25;2.50;;;19.90;99.90;;;;;;5049559;28;20399;-89
2023/07/15 01:39:15;;;;;;;5.00;2.25;;;19.80;99.90;;;;;;5033485;28;20072;-91
2023/07/15 01:41:42;;;;;;;3.63;1.77;;;19.80;99.90;;;;;;5055563;28;20105;-89
2023/07/15 01:44:08;;;;;;;3.83;2.30;;;19.90;99.90;;;;;;5042028;28;20560;-90
2023/07/15 01:46:39;;;;;;;8.75;2.20;;;19.30;99.90;;;;;;5040370;28;20044;-90
2023/07/15 01:49:07;;;;;;;2.60;1.90;;;19.90;99.90;;;;;;5043777;28;20040;-90
2023/07/15 01:51:34;;;;;;;3.53;2.35;;;19.90;99.90;;;;;;5038612;28;20056;-90
2023/07/15 01:53:59;;;;;;;4.07;2.05;;;19.90;99.90;;;;;;5002288;28;20040;-89
2023/07/15 01:56:25;;;;;;;5.45;2.35;;;19.90;99.90;;;;;;5053339;28;20053;-89
2023/07/15 01:58:51;;;;;;;6.00;2.75;;;19.80;99.90;;;;;;5050614;28;20100;-90
2023/07/15 02:01:18;;;;;;;4.43;2.00;;;19.80;99.90;;;;;;5052549;28;20046;-90
2023/07/15 02:03:45;;;;;;;4.50;2.10;;;19.80;99.90;;;;;;5040492;28;20044;-91
2023/07/15 02:06:11;;;;;;;3.45;2.00;;;19.80;99.90;;;;;;5038134;28;20055;-91
2023/07/15 02:08:37;;;;;;;3.92;2.40;;;19.80;99.90;;;;;;5051150;28;20227;-90
2023/07/15 02:11:03;;;;;;;3.88;2.10;;;19.80;99.90;;;;;;5049797;28;20135;-89
2023/07/15 02:13:29;;;;;;;5.05;1.95;;;19.70;99.90;;;;;;5017735;28;20072;-89
2023/07/15 02:15:55;;;;;;;4.95;2.00;;;19.70;99.90;;;;;;5048755;28;20447;-89
2023/07/15 02:18:22;;;;;;;3.40;2.40;;;19.70;99.90;;;;;;5050248;28;20140;-90
2023/07/15 02:20:49;;;;;;;7.25;3.10;;;19.70;99.90;;;;;;5033283;28;20043;-90
2023/07/15 02:23:16;;;;;;;5.05;2.85;;;19.60;99.90;;;;;;5034090;28;20124;-89
2023/07/15 02:25:42;;;;;;;3.47;1.70;;;19.60;99.90;;;;;;5049896;28;20055;-90
2023/07/15 02:28:08;;;;;;;8.18;3.03;;;19.60;99.90;;;;;;5033423;28;20103;-89
2023/07/15 02:30:34;;;;;;;3.38;2.05;;;19.60;99.90;;;;;;5034093;28;20040;-89
2023/07/15 02:33:01;;;;;;;4.72;1.75;;;19.60;99.90;;;;;;5033822;28;20054;-89
2023/07/15 02:35:27;;;;;;;4.28;1.98;;;19.50;99.90;;;;;;5047782;28;20041;-90
2023/07/15 02:37:55;;;;;;;3.28;1.60;;;19.50;99.90;;;;;;5030430;28;20158;-90
2023/07/15 02:40:21;;;;;;;2.78;1.55;;;19.50;99.90;;;;;;5064205;28;20138;-90
2023/07/15 02:42:46;;;;;;;4.45;1.85;;;19.50;99.90;;;;;;5047219;28;20044;-91
2023/07/15 02:45:15;;;;;;;4.72;1.67;;;19.40;99.90;;;;;;5063341;28;20121;-91
2023/07/15 02:47:41;;;;;;;4.55;1.80;;;19.50;99.90;;;;;;5047701;28;20049;-90
2023/07/15 02:50:08;;;;;;;6.40;1.33;;;19.50;99.90;;;;;;5047020;28;20052;-91
2023/07/15 02:52:37;;;;;;;2.85;1.80;;;19.50;99.90;;;;;;5064221;28;20056;-90
2023/07/15 02:55:06;;;;;;;3.22;1.77;;;19.50;99.90;;;;;;5050035;28;20048;-90
2023/07/15 02:57:34;;;;;;;3.40;1.67;;;19.50;99.90;;;;;;5017467;28;20052;-91
2023/07/15 03:00:00;;;;;;;5.32;1.50;;;19.50;99.90;;;;;;5031261;28;20471;-90
2023/07/15 03:02:31;;;;;;;2.83;1.30;;;19.50;99.90;;;;;;5032700;28;20115;-90
2023/07/15 03:04:57;;;;;;;6.45;1.60;;;19.50;99.90;;;;;;5050028;28;20048;-90
2023/07/15 03:07:22;;;;;;;3.05;1.50;;;19.40;99.90;;;;;;5015572;28;20135;-90
2023/07/15 03:09:48;;;;;;;3.83;1.27;;;19.50;99.90;;;;;;5033340;28;20052;-90
2023/07/15 03:12:14;;;;;;;3.25;2.40;;;19.50;99.90;;;;;;5049186;28;20032;-91
2023/07/15 03:14:41;;;;;;;2.13;1.33;;;19.60;99.90;;;;;;5049255;28;20131;-90
2023/07/15 03:17:08;;;;;;;3.03;1.70;;;19.70;99.90;;;;;;5032920;28;20119;-92
2023/07/15 03:19:34;;;;;;;4.00;1.15;;;21.60;99.90;;;;;;5032279;28;20098;-90
2023/07/15 03:21:59;;;;;;;5.53;1.33;;;19.90;99.90;;;;;;5032294;28;20048;-90
2023/07/15 03:24:29;;;;;;;2.42;1.10;;;20.00;99.90;;;;;;5015191;28;20045;-90
2023/07/15 03:27:06;;;;;;;1.92;0.90;;;20.00;99.90;;;;;;5034214;28;20353;-91
2023/07/15 03:29:32;;;;;;;4.70;1.60;;;20.10;99.90;;;;;;5047543;28;20036;-90
2023/07/15 03:31:57;;;;;;;2.83;1.42;;;20.20;99.90;;;;;;5016392;28;20503;-90
2023/07/15 03:34:23;;;;;;;1.80;1.08;;;20.30;99.90;;;;;;5031423;28;20052;-90
2023/07/15 03:36:49;;;;;;;2.08;1.15;;;20.40;99.90;;;;;;5047760;28;20442;-90
2023/07/15 03:39:15;;;;;;;2.90;1.33;;;20.50;99.90;;;;;;5015884;28;20063;-90
2023/07/15 03:41:40;;;;;;;1.38;1.10;;;20.50;99.90;;;;;;5031093;28;20075;-90
2023/07/15 03:44:06;;;;;;;3.33;1.30;;;20.50;99.90;;;;;;5049260;28;20044;-89
2023/07/15 03:46:34;;;;;;;2.38;1.33;;;20.60;99.90;;;;;;5031386;28;20515;-90
2023/07/15 03:48:59;;;;;;;3.03;1.45;;;20.60;99.90;;;;;;5048580;28;20060;-89
2023/07/15 03:51:25;;;;;;;3.25;1.27;;;20.60;99.90;;;;;;5031739;28;20044;-90
2023/07/15 03:53:51;;;;;;;4.97;1.38;;;20.60;99.90;;;;;;5031108;28;20060;-89
2023/07/15 03:56:17;;;;;;;2.05;1.00;;;20.60;99.90;;;;;;5032854;28;20036;-89
2023/07/15 03:58:42;;;;;;;1.58;1.20;;;20.70;99.90;;;;;;5047576;28;20052;-89
2023/07/15 04:01:08;;;;;;;4.35;1.50;;;20.70;99.90;;;;;;5048808;28;20629;-89
2023/07/15 04:03:34;;;;;;;2.67;1.20;;;20.70;99.90;;;;;;5046941;28;20044;-90
2023/07/15 04:05:59;;;;;;;4.22;1.42;;;20.70;99.90;;;;;;5032112;28;20036;-90
2023/07/15 04:08:25;;;;;;;2.58;1.40;;;20.60;99.90;;;;;;5014901;28;20052;-89
2023/07/15 04:10:51;;;;;;;3.90;1.65;;;20.60;99.90;;;;;;4998703;28;20036;-91
2023/07/15 04:13:17;;;;;;;4.35;1.58;;;20.60;99.90;;;;;;5015682;28;20120;-90
2023/07/15 04:15:42;;;;;;;2.92;1.40;;;20.60;99.90;;;;;;5014577;28;20146;-92
2023/07/15 04:18:11;;;;;;;1.70;1.08;;;20.60;99.90;;;;;;5049658;28;20044;-91
2023/07/15 04:20:37;;;;;;;3.53;1.52;;;20.50;99.90;;;;;;5016195;28;20040;-91
2023/07/15 04:23:02;;;;;;;2.15;1.20;;;20.50;99.90;;;;;;5032690;28;20040;-91
2023/07/15 04:25:28;;;;;;;6.18;1.58;;;20.50;99.90;;;;;;5040158;28;20029;-91
2023/07/15 04:27:54;;;;;;;3.15;1.40;;;20.40;99.90;;;;;;5033973;28;20040;-92
2023/07/15 04:30:20;;;;;;;5.82;1.50;;;20.40;99.90;;;;;;5024099;28;20040;-92
2023/07/15 04:32:47;;;;;;;3.42;1.40;;;20.40;99.90;;;;;;5017811;28;20564;-91
2023/07/15 04:35:13;;;;;;;2.97;1.10;;;20.40;99.90;;;;;;5048766;28;20139;-91
2023/07/15 04:37:38;;;;;;;3.97;1.25;;;20.40;99.90;;;;;;4998106;28;20190;-91
2023/07/15 04:40:05;;;;;;;2.45;1.33;;;20.40;99.90;;;;;;5048264;28;20194;-90
2023/07/15 04:42:30;;;;;;;2.17;1.40;;;20.40;99.90;;;;;;5030775;28;20569;-93
2023/07/15 04:44:56;;;;;;;5.00;1.35;;;20.50;99.90;;;;;;5047632;28;20048;-90
2023/07/15 04:47:22;;;;;;;4.47;1.67;;;20.50;99.90;;;;;;5047225;28;20186;-90
2023/07/15 04:49:48;;;;;;;3.25;1.80;;;20.60;99.90;;;;;;4999224;28;20506;-90
2023/07/15 04:52:13;;;;;;;3.30;1.40;;;20.60;99.90;;;;;;5031939;28;20135;-91
2023/07/15 04:54:39;;;;;;;2.85;1.38;;;19.70;99.90;;;;;;5033880;28;20060;-94
2023/07/15 04:57:05;;;;;;;4.53;1.42;;;20.60;99.90;;;;;;5055204;28;20040;-90
2023/07/15 04:59:31;;;;;;;4.38;1.48;;;20.60;99.90;;;;;;5033862;28;20098;-92
2023/07/15 05:01:57;;;;;;;4.85;1.55;;;20.70;99.90;;;;;;5063783;28;20028;-93
2023/07/15 05:04:23;;;;;;;3.80;1.55;;;20.70;99.90;;;;;;5054606;28;20092;-90
2023/07/15 05:06:48;;;;;;;2.88;1.48;;;20.80;99.90;;;;;;5052388;28;20044;-90
2023/07/15 05:09:14;;;;;;;2.95;1.27;;;20.90;99.90;;;;;;5047663;28;20037;-92
2023/07/15 05:11:40;;;;;;;3.95;1.58;;;20.90;99.90;;;;;;5020675;28;20150;-91
2023/07/15 05:14:05;;;;;;;5.22;1.70;;;20.90;99.90;;;;;;5037496;28;20048;-92
2023/07/15 05:16:31;;;;;;;2.47;1.45;;;20.90;99.90;;;;;;5067411;28;20668;-90
2023/07/15 05:18:57;;;;;;;3.58;1.73;;;20.90;99.90;;;;;;5069115;28;20028;-92
2023/07/15 05:21:22;;;;;;;2.30;1.40;;;20.90;99.90;;;;;;5066419;28;20423;-93
2023/07/15 05:23:48;;;;;;;3.92;1.60;;;20.90;99.90;;;;;;5054223;28;20050;-93
2023/07/15 05:26:14;;;;;;;5.15;1.83;;;20.90;99.90;;;;;;5055296;28;20044;-92
2023/07/15 05:28:39;;;;;;;3.33;1.30;;;20.90;99.90;;;;;;5038462;28;20051;-91
2023/07/15 05:31:05;;;;;;;2.42;1.67;;;20.90;99.90;;;;;;5054163;28;20165;-93
2023/07/15 05:33:31;;;;;;;4.13;1.50;;;19.30;99.90;;;;;;5035208;28;20044;-94
2023/07/15 05:35:57;;;;;;;2.60;1.33;;;20.90;99.90;;;;;;5035677;28;20041;-91
2023/07/15 05:38:24;;;;;;;4.15;1.75;;;21.00;99.90;;;;;;5035735;28;20044;-92
2023/07/15 05:40:54;;;;;;;2.90;1.05;;;21.00;99.90;;;;;;5053118;28;20044;-91
2023/07/15 05:43:19;;;;;;;4.20;1.52;;;21.00;99.90;;;;;;5039127;28;20087;-93
2023/07/15 05:45:48;;;;;;;5.70;1.55;;;21.10;99.90;;;;;;5054077;28;20049;-92
2023/07/15 05:48:14;;;;;;;2.40;1.20;;;21.20;99.90;;;;;;5037569;28;20322;-92
2023/07/15 05:50:40;;;;;;;1.92;1.20;;;21.20;99.90;;;;;;5037388;28;20429;-90
2023/07/15 05:53:06;;;;;;;5.10;1.60;;;21.30;99.90;;;;;;5041357;28;20040;-94
2023/07/15 05:55:33;;;;;;;4.32;1.38;;;21.30;99.90;;;;;;5044134;28;20044;-89
2023/07/15 05:58:01;;;;;;;3.45;1.73;;;20.60;99.90;;;;;;5060186;28;20503;-89
2023/07/15 06:00:29;;;;;;;3.03;1.50;;;21.40;99.90;;;;;;5061044;28;20045;-91
2023/07/15 06:02:58;;;;;;;4.85;1.42;;;21.40;99.90;;;;;;5022441;28;20036;-90
2023/07/15 06:05:23;;;;;;;4.35;1.42;;;21.50;99.90;;;;;;5052377;28;20056;-90
2023/07/15 06:07:50;;;;;;;3.88;1.17;;;21.60;99.90;;;;;;5051334;28;20565;-91
2023/07/15 06:10:16;;;;;;;3.42;1.60;;;21.70;99.90;;;;;;5035065;28;20080;-91
2023/07/15 06:12:42;;;;;;;5.03;1.23;;;21.70;99.90;;;;;;5033370;28;20056;-88
2023/07/15 06:15:08;;;;;;;5.88;1.33;;;21.80;99.90;;;;;;5033920;28;20515;-90
2023/07/15 06:17:34;;;;;;;3.88;1.42;;;21.10;99.90;;;;;;5049672;28;20102;-88
2023/07/15 06:20:00;;;;;;;4.40;1.50;;;21.90;99.90;;;;;;5017290;28;20207;-88
2023/07/15 06:22:26;;;;;;;5.68;2.92;;;21.00;99.90;;;;;;5034894;28;20671;-88
2023/07/15 06:24:55;;;;;;;2.58;1.10;;;22.10;99.90;;;;;;5051396;28;20055;-90
2023/07/15 06:27:21;;;;;;;5.38;1.90;;;22.30;99.90;;;;;;5033550;28;20048;-88
2023/07/15 06:29:48;;;;;;;2.45;1.27;;;22.30;99.90;;;;;;5032942;28;20036;-87
2023/07/15 06:32:14;;;;;;;5.10;1.35;;;22.40;99.90;;;;;;5016955;28;20044;-86
2023/07/15 06:34:40;;;;;;;1.85;1.15;;;22.40;99.90;;;;;;5032052;28;20071;-89
2023/07/15 06:37:06;;;;;;;3.05;1.20;;;22.50;99.90;;;;;;5016130;28;20113;-88
2023/07/15 06:39:31;;;;;;;3.38;1.40;;;22.50;99.90;;;;;;5017029;28;20050;-91
2023/07/15 06:41:58;;;;;;;4.07;1.30;;;22.50;99.90;;;;;;5033418;28;20438;-90
2023/07/15 06:44:24;;;;;;;3.65;1.50;;;22.50;99.90;;;;;;5033201;28;20045;-87
2023/07/15 06:46:50;;;;;;;2.70;1.35;;;22.40;99.90;;;;;;5015951;28;20441;-86
2023/07/15 06:49:19;;;;;;;5.15;1.48;;;22.40;99.90;;;;;;5033150;28;20036;-87
2023/07/15 06:51:47;;;;;;;3.13;1.45;;;22.40;99.90;;;;;;5062643;28;20044;-89
2023/07/15 06:54:13;;;;;;;2.97;1.42;;;22.50;99.90;;;;;;5049399;28;20039;-88
2023/07/15 06:56:39;;;;;;;3.55;1.58;;;22.50;99.90;;;;;;5053672;28;20049;-88
2023/07/15 06:59:04;;;;;;;2.95;1.45;;;22.60;99.90;;;;;;5032902;28;20055;-87
2023/07/15 07:01:30;;;;;;;5.28;1.20;;;22.70;99.90;;;;;;5031582;28;20158;-86
2023/07/15 07:03:57;;;;;;;3.75;1.38;;;22.70;99.90;;;;;;5049053;28;20084;-84
2023/07/15 07:06:27;;;;;;;2.50;1.30;;;22.80;99.90;;;;;;5059159;28;20062;-85
2023/07/15 07:08:54;;;;;;;2.30;1.08;;;23.00;99.90;;;;;;5006820;28;20615;-84
2023/07/15 07:11:20;;;;;;;2.85;1.35;;;23.00;99.90;;;;;;5053639;28;20098;-89
2023/07/15 07:13:46;;;;;;;4.03;1.70;;;23.10;99.90;;;;;;5019260;28;20186;-85
2023/07/15 07:16:12;;;;;;;4.47;1.55;;;23.30;99.90;;;;;;5053498;28;20102;-85
2023/07/15 07:18:37;;;;;;;3.85;1.38;;;23.40;99.90;;;;;;5070775;28;20052;-84
2023/07/15 07:21:03;;;;;;;1.42;0.93;;;23.50;99.90;;;;;;5074681;28;20063;-83
2023/07/15 07:23:32;;;;;;;4.65;2.22;;;23.60;99.90;;;;;;5055938;28;20082;-82
2023/07/15 07:25:58;;;;;;;3.38;1.25;;;23.60;99.90;;;;;;5040314;28;20045;-82
2023/07/15 07:28:39;;;;;;;1.85;1.17;;;22.40;99.90;;;;;;5074045;28;20044;-80
2023/07/15 07:31:05;;;;;;;1.67;1.30;;;23.80;99.90;;;;;;5057394;28;20040;-81
2023/07/15 07:33:30;;;;;;;3.22;1.20;;;23.80;99.90;;;;;;5022753;28;20055;-82
2023/07/15 07:36:11;;;;;;;2.40;1.10;;;23.80;99.90;;;;;;5017009;28;20133;-80
2023/07/15 07:38:51;;;;;;;;;;;;;;;;;;;;;
2023/07/15 07:41:19;;;;;;;3.28;0.80;;;24.60;99.90;;;;;;5030977;28;20061;-80
2023/07/15 07:43:55;;;;;;;3.40;1.05;;;24.50;99.90;;;;;;5016752;28;20363;-80
2023/07/15 07:46:36;;;;;;;3.42;1.20;;;26.40;99.90;;;;;;4993164;28;20064;-81
2023/07/15 07:49:05;;;;;;;4.28;0.73;;;24.60;99.90;;;;;;4999845;28;20053;-81
2023/07/15 07:51:34;;;;;;;1.35;0.77;;;25.30;99.90;;;;;;4996585;28;20208;-81
2023/07/15 07:54:11;;;;;;;2.20;0.90;;;24.80;99.90;;;;;;4999207;28;20486;-79
2023/07/15 07:56:43;;;;;;;1.42;1.00;;;24.90;99.90;;;;;;5033537;28;20157;-80
2023/07/15 07:59:09;;;;;;;5.32;1.08;;;24.80;99.90;;;;;;5002719;28;20048;-86
2023/07/15 08:01:36;;;;;;;1.98;1.00;;;26.00;99.90;;;;;;5018907;28;20123;-88
2023/07/15 08:04:02;;;;;;;5.55;1.13;;;24.90;99.90;;;;;;4970399;28;20056;-87
2023/07/15 08:06:29;;;;;;;2.58;0.80;;;24.80;99.90;;;;;;5003529;28;20053;-88
2023/07/15 08:08:57;;;;;;;2.40;0.90;;;24.90;99.90;;;;;;4999444;28;20081;-88
2023/07/15 08:11:23;;;;;;;2.75;0.98;;;24.90;99.90;;;;;;4961125;28;20129;-87
2023/07/15 08:13:49;;;;;;;2.67;1.60;;;24.90;99.90;;;;;;5015882;28;20119;-87
2023/07/15 08:16:32;;;;;;;1.95;1.00;;;25.00;99.90;;;;;;5032311;28;20052;-86
2023/07/15 08:18:58;;;;;;;3.65;1.20;;;25.10;99.90;;;;;;5031460;28;20545;-87
2023/07/15 08:21:26;;;;;;;1.88;1.00;;;25.20;99.90;;;;;;5030810;28;20337;-88
2023/07/15 08:23:53;;;;;;;2.67;1.17;;;25.30;99.90;;;;;;5014777;28;20060;-87
2023/07/15 08:26:19;;;;;;;1.98;1.00;;;25.30;99.90;;;;;;5033128;28;20048;-87
2023/07/15 08:28:44;;;;;;;1.73;0.70;;;25.40;99.90;;;;;;5020210;28;20472;-86
2023/07/15 08:31:10;;;;;;;2.90;0.90;;;25.50;99.40;;;;;;5041589;28;20036;-84
2023/07/15 08:33:36;;;;;;;2.80;0.77;;;25.50;98.90;;;;;;5042797;28;20127;-84
2023/07/15 08:36:01;;;;;;;2.85;0.80;;;25.50;98.90;;;;;;5023392;28;20127;-84
2023/07/15 08:38:27;;;;;;;3.08;0.85;;;25.60;98.70;;;;;;5019900;28;20422;-84
2023/07/15 08:40:59;;;;;;;2.80;0.70;;;25.60;98.60;;;;;;5071448;28;20392;-85
2023/07/15 08:43:25;;;;;;;1.40;0.65;;;24.70;98.20;;;;;;5052193;28;20541;-83
2023/07/15 08:45:55;;;;;;;2.55;1.08;;;25.40;98.40;;;;;;5033988;28;20057;-84
2023/07/15 08:48:21;;;;;;;6.82;0.95;;;25.70;98.40;;;;;;5065185;28;20181;-84
2023/07/15 08:50:49;;;;;;;1.73;0.70;;;25.60;98.40;;;;;;5065790;28;20451;-84
2023/07/15 08:53:22;;;;;;;1.98;0.70;;;25.60;98.60;;;;;;5047200;28;20168;-84
2023/07/15 08:55:48;;;;;;;1.45;0.75;;;25.60;98.60;;;;;;5047455;28;20123;-84
2023/07/15 08:58:14;;;;;;;3.13;0.70;;;25.40;98.50;;;;;;5047385;28;20187;-84
2023/07/15 09:00:40;;;;;;;0.95;0.50;;;25.40;98.50;;;;;;5065513;28;20469;-84
2023/07/15 09:03:06;;;;;;;3.90;0.70;;;27.20;99.40;;;;;;5048658;28;20058;-84
2023/07/15 09:05:31;;;;;;;2.90;0.60;;;25.40;98.70;;;;;;5047222;28;20041;-85
2023/07/15 09:07:58;;;;;;;3.08;0.75;;;25.50;98.60;;;;;;5047748;28;20526;-85
2023/07/15 09:10:24;;;;;;;3.83;0.82;;;25.60;98.60;;;;;;5046911;28;20045;-85
2023/07/15 09:12:55;;;;;;;1.50;0.60;;;25.60;98.60;;;;;;5048359;28;20098;-85
2023/07/15 09:15:24;;;;;;;1.73;0.80;;;25.70;98.90;;;;;;5048352;28;20071;-84
2023/07/15 09:17:55;;;;;;;0.93;0.60;;;25.70;98.60;;;;;;5048164;28;20090;-85
2023/07/15 09:20:25;;;;;;;1.98;0.70;;;25.60;98.60;;;;;;5039174;28;20472;-84
2023/07/15 09:22:55;;;;;;;2.50;0.85;;;25.60;98.90;;;;;;5037524;28;20044;-84
2023/07/15 09:25:24;;;;;;;2.78;1.05;;;25.60;98.60;;;;;;5068978;28;20056;-85
2023/07/15 09:27:51;;;;;;;1.92;0.50;;;25.80;98.80;;;;;;5033119;28;20049;-85
2023/07/15 09:30:18;;;;;;;1.20;0.40;;;25.80;98.70;;;;;;5047797;28;20052;-85
2023/07/15 09:32:45;;;;;;;1.67;0.70;;;25.90;98.70;;;;;;5050056;28;20049;-86
2023/07/15 09:35:11;;;;;;;2.08;0.70;;;24.00;98.10;;;;;;5066666;28;20040;-85
2023/07/15 09:37:37;;;;;;;4.15;0.93;;;25.80;98.90;;;;;;5036535;28;20424;-85
2023/07/15 09:40:08;;;;;;;7.40;0.85;;;25.80;98.80;;;;;;5052454;28;20041;-85
2023/07/15 09:42:53;;;;;;;2.25;0.80;;;25.90;99.00;;;;;;5035691;28;20079;-86
2023/07/15 09:45:39;;;;;;;2.75;0.93;;;26.20;98.80;;;;;;5039512;28;20052;-86
2023/07/15 09:48:10;;;;;;;1.45;0.90;;;27.50;99.10;;;;;;5072748;28;20408;-86
2023/07/15 09:50:37;;;;;;;1.20;0.43;;;26.10;98.80;;;;;;5022889;28;20104;-88
2023/07/15 09:53:05;;;;;;;2.83;1.08;;;26.00;98.80;;;;;;5040985;28;20049;-88
2023/07/15 09:55:32;;;;;;;1.05;0.60;;;26.00;98.90;;;;;;5039066;28;20101;-86
2023/07/15 09:58:16;;;;;;;0.82;0.60;;;26.10;98.80;;;;;;5039138;28;20045;-86
2023/07/15 10:00:50;;;;;;;2.38;1.00;;;26.20;98.70;;;;;;5072700;28;20068;-86
2023/07/15 10:03:51;;;;;;;4.13;0.77;;;26.20;98.80;;;;;;5056407;28;20488;-86
2023/07/15 10:06:18;;;;;;;1.27;0.85;;;26.30;98.80;;;;;;5039091;28;20049;-86
2023/07/15 10:08:49;;;;;;;2.42;0.98;;;26.20;98.80;;;;;;5039386;28;20051;-86
2023/07/15 10:11:16;;;;;;;0.98;0.77;;;26.10;98.90;;;;;;5061338;28;20106;-87
2023/07/15 10:13:42;;;;;;;1.63;0.93;;;26.00;99.10;;;;;;5027510;28;20067;-84
2023/07/15 10:16:14;;;;;;;1.15;0.70;;;26.10;99.30;;;;;;5046916;28;20037;-83
2023/07/15 10:18:40;;;;;;;2.35;0.80;;;26.00;99.20;;;;;;5042473;28;20123;-83
2023/07/15 10:21:21;;;;;;;3.17;0.93;;;26.00;99.40;;;;;;5013050;28;20140;-85
2023/07/15 10:23:48;;;;;;;2.78;0.90;;;26.00;99.40;;;;;;4994530;28;20076;-85
2023/07/15 10:26:19;;;;;;;2.47;0.75;;;25.90;99.40;;;;;;4945878;28;20062;-83
2023/07/15 10:28:52;;;;;;;1.90;0.90;;;26.10;99.40;;;;;;4978284;28;20066;-86
2023/07/15 10:31:24;;;;;;;1.00;0.70;;;26.20;99.20;;;;;;4995562;28;20125;-84
2023/07/15 10:33:57;;;;;;;2.55;1.00;;;26.40;99.30;;;;;;4981491;28;20057;-81
2023/07/15 10:36:44;;;;;;;2.92;0.88;;;26.50;98.90;;;;;;4978586;28;20046;-83
2023/07/15 10:39:18;;;;;;;2.03;1.02;;;26.70;98.70;;;;;;4997605;28;20061;-84
2023/07/15 10:41:52;;;;;;;1.88;1.02;;;26.80;98.70;;;;;;4999221;28;20069;-84
2023/07/15 10:44:23;;;;;;;1.98;1.05;;;27.00;98.40;;;;;;4996964;28;20184;-84
2023/07/15 10:47:02;;;;;;;2.25;0.98;;;27.10;98.20;;;;;;5004039;28;20064;-84
2023/07/15 10:49:30;;;;;;;2.35;1.13;;;27.10;97.80;;;;;;5010457;28;20054;-83
2023/07/15 10:51:57;;;;;;;2.42;0.95;;;27.00;98.00;;;;;;4983892;28;20423;-85
2023/07/15 10:54:27;;;;;;;2.67;1.20;;;27.00;98.10;;;;;;4982569;28;20620;-84
2023/07/15 10:56:56;;;;;;;1.73;0.90;;;26.90;98.00;;;;;;4983683;28;20049;-86
2023/07/15 10:59:33;;;;;;;2.53;1.00;;;26.40;97.70;;;;;;5029650;28;20560;-88
2023/07/15 11:01:59;;;;;;;4.80;1.02;;;26.70;97.60;;;;;;5037267;28;20049;-83
2023/07/15 11:04:33;;;;;;;2.35;1.02;;;26.60;97.90;;;;;;5019557;28;20059;-82
2023/07/15 11:07:06;;;;;;;2.28;1.23;;;26.50;98.00;;;;;;5017888;28;20147;-84
2023/07/15 11:09:36;;;;;;;3.53;1.00;;;26.50;98.10;;;;;;5050963;28;20122;-82
2023/07/15 11:12:05;;;;;;;8.65;0.98;;;26.50;98.10;;;;;;5035521;28;20053;-82
2023/07/15 11:14:31;;;;;;;1.83;0.88;;;26.40;98.00;;;;;;5050805;28;20579;-84
2023/07/15 11:17:03;;;;;;;2.25;1.30;;;26.50;98.20;;;;;;5020671;28;20138;-82
2023/07/15 11:19:29;;;;;;;3.30;0.98;;;26.70;98.30;;;;;;5052167;28;20060;-84
2023/07/15 11:21:57;;;;;;;3.15;0.88;;;26.80;98.00;;;;;;5054946;28;20134;-83
2023/07/15 11:24:30;;;;;;;1.50;0.77;;;26.80;97.90;;;;;;5037892;28;20128;-85
2023/07/15 11:27:00;;;;;;;0.85;0.50;;;26.80;97.80;;;;;;5028813;28;20519;-85
2023/07/15 11:29:26;;;;;;;2.05;0.90;;;26.80;97.80;;;;;;5028276;28;20080;-85
2023/07/15 11:31:56;;;;;;;1.27;0.77;;;26.90;97.80;;;;;;5010970;28;20404;-83
2023/07/15 11:34:26;;;;;;;2.28;0.93;;;26.90;97.70;;;;;;5028726;28;20150;-85
2023/07/15 11:36:53;;;;;;;2.17;1.00;;;26.80;97.50;;;;;;5042868;28;20052;-83
2023/07/15 11:39:22;;;;;;;6.00;0.82;;;26.80;97.50;;;;;;5045276;28;20057;-83
2023/07/15 11:41:51;;;;;;;2.10;1.00;;;26.70;97.50;;;;;;5028034;28;20435;-82
2023/07/15 11:44:21;;;;;;;1.42;0.80;;;26.50;97.50;;;;;;5046616;28;20454;-82
2023/07/15 11:46:47;;;;;;;1.38;0.90;;;26.40;97.50;;;;;;5050690;28;20142;-84
2023/07/15 11:49:19;;;;;;;1.95;1.13;;;26.40;97.70;;;;;;5051750;28;20045;-83
2023/07/15 11:51:45;;;;;;;;;;;26.40;97.80;;;;;;5052095;28;20733;-82
2023/07/15 11:54:12;;;;;;;1.88;1.05;;;26.30;98.10;;;;;;5051919;28;19921;-83
2023/07/15 11:56:43;;;;;;;2.75;1.00;;;26.30;97.90;;;;;;5047954;28;20048;-82
2023/07/15 11:59:26;;;;;;;0.57;0.50;;;26.30;98.00;;;;;;5031629;28;20410;-83
2023/07/15 12:01:52;;;;;;;2.22;1.23;;;26.40;98.10;;;;;;5046860;28;20044;-84
2023/07/15 12:04:21;;;;;;;2.65;0.75;;;26.60;98.10;;;;;;5048211;28;20097;-81
2023/07/15 12:06:49;;;;;;;2.97;0.80;;;26.80;98.00;;;;;;5029570;28;20036;-83
2023/07/15 12:09:15;;;;;;;1.23;0.82;;;27.00;97.70;;;;;;5048046;28;20048;-82
2023/07/15 12:11:42;;;;;;;1.35;0.90;;;27.10;97.40;;;;;;5046071;28;20186;-79
2023/07/15 12:14:08;;;;;;;0.82;0.60;;;27.20;97.30;;;;;;5046158;28;20084;-80
2023/07/15 12:16:36;;;;;;;2.22;0.60;;;27.30;97.00;;;;;;5030664;28;20272;-81
2023/07/15 12:19:03;;;;;;;1.30;0.60;;;27.30;96.60;;;;;;5046316;28;20045;-81
2023/07/15 12:21:29;;;;;;;1.65;0.70;;;27.30;96.40;;;;;;5048054;28;20053;-81
2023/07/15 12:23:56;;;;;;;3.33;0.68;;;27.50;96.30;;;;;;5029007;28;20084;-83
2023/07/15 12:26:22;;;;;;;1.65;0.70;;;27.80;96.40;;;;;;5048307;28;20062;-82
2023/07/15 12:28:48;;;;;;;1.02;0.50;;;28.00;96.10;;;;;;5046522;28;20049;-82
2023/07/15 12:31:15;;;;;;;1.98;0.60;;;28.10;95.80;;;;;;5046529;28;20084;-81
2023/07/15 12:33:41;;;;;;;1.50;0.82;;;28.20;95.80;;;;;;5030320;28;20055;-82
2023/07/15 12:36:12;;;;;;;3.85;0.80;;;28.40;95.80;;;;;;5046356;28;20490;-83
2023/07/15 12:38:39;;;;;;;1.38;0.63;;;28.50;95.50;;;;;;5047508;28;20044;-82
2023/07/15 12:41:06;;;;;;;1.05;0.52;;;28.40;95.30;;;;;;5063612;28;20454;-84
2023/07/15 12:43:32;;;;;;;1.33;0.63;;;28.30;95.20;;;;;;5065582;28;20041;-83
2023/07/15 12:46:02;;;;;;;1.40;0.60;;;28.00;95.40;;;;;;5064342;28;20045;-83
2023/07/15 12:48:29;;;;;;;1.33;0.57;;;27.00;95.10;;;;;;5046222;28;20088;-82
2023/07/15 12:50:55;;;;;;;3.00;0.77;;;28.70;95.50;;;;;;5065242;28;20048;-84
2023/07/15 12:53:22;;;;;;;2.25;0.88;;;27.70;95.40;;;;;;5045708;28;20040;-83